RYR1599 EDDN-LEGE
Flight info
| Callsign | RYR1599 |
|---|---|
| Flight time | 1h 48m |
| Altitude | 38000 |
| Route | BOLSI1C BOLSI Y166 DKB N869 TEDGO DCT SONOM/N0439F370 DCT GERSA N850 SOSON DCT ODINA DCT GEKBA DCT VAMTU DCT KOLON DCT GANGU DCT PADKO DCT DIVKO G7 MAMES M984 BGR |
| Aircraft | B738/M-SDE3FGILRWY/SB1 |
Departure
| Time | 2026-04-11 09:52 |
|---|---|
| Airport | Nuremberg Airport (EDDN) |
Arrival
| Time | 2026-04-11 11:40 |
|---|---|
| Airport | Girona-Costa Brava Airport (LEGE) |
| Time | Latitude | Longitude | Altitude | Speed | Heading |
|---|---|---|---|---|---|
| 2026-04-11 09:14 | 49.49509 | 11.07857 | 1026 ft | 0 kts | 188° |
| 2026-04-11 09:37 | 49.49510 | 11.07857 | 1027 ft | 1 kts | 188° |
| 2026-04-11 09:37 | 49.49533 | 11.07863 | 1028 ft | 4 kts | 188° |
| 2026-04-11 09:37 | 49.49560 | 11.07869 | 1029 ft | 4 kts | 192° |
| 2026-04-11 09:38 | 49.49576 | 11.07873 | 1029 ft | 4 kts | 271° |
| 2026-04-11 09:38 | 49.49573 | 11.07903 | 1029 ft | 4 kts | 278° |
| 2026-04-11 09:38 | 49.49570 | 11.07928 | 1029 ft | 4 kts | 279° |
| 2026-04-11 09:43 | 49.49570 | 11.07927 | 1029 ft | 0 kts | 279° |
| 2026-04-11 09:44 | 49.49573 | 11.07903 | 1029 ft | 5 kts | 279° |
| 2026-04-11 09:44 | 49.49581 | 11.07821 | 1029 ft | 11 kts | 278° |
| 2026-04-11 09:44 | 49.49634 | 11.07765 | 1030 ft | 11 kts | 5° |
| 2026-04-11 09:44 | 49.49687 | 11.07712 | 1031 ft | 10 kts | 280° |
| 2026-04-11 09:45 | 49.49696 | 11.07605 | 1031 ft | 10 kts | 278° |
| 2026-04-11 09:45 | 49.49707 | 11.07496 | 1029 ft | 11 kts | 280° |
| 2026-04-11 09:45 | 49.49721 | 11.07374 | 1025 ft | 12 kts | 279° |
| 2026-04-11 09:45 | 49.49733 | 11.07251 | 1022 ft | 12 kts | 278° |
| 2026-04-11 09:46 | 49.49745 | 11.07123 | 1023 ft | 13 kts | 278° |
| 2026-04-11 09:46 | 49.49758 | 11.06983 | 1020 ft | 14 kts | 278° |
| 2026-04-11 09:46 | 49.49772 | 11.06840 | 1018 ft | 13 kts | 280° |
| 2026-04-11 09:46 | 49.49787 | 11.06701 | 1016 ft | 13 kts | 277° |
| 2026-04-11 09:47 | 49.49799 | 11.06564 | 1016 ft | 13 kts | 278° |
| 2026-04-11 09:47 | 49.49812 | 11.06431 | 1018 ft | 12 kts | 279° |
| 2026-04-11 09:47 | 49.49826 | 11.06301 | 1018 ft | 12 kts | 279° |
| 2026-04-11 09:47 | 49.49838 | 11.06174 | 1018 ft | 12 kts | 278° |
| 2026-04-11 09:48 | 49.49850 | 11.06051 | 1020 ft | 11 kts | 283° |
| 2026-04-11 09:48 | 49.49903 | 11.05971 | 1021 ft | 11 kts | 341° |
| 2026-04-11 09:48 | 49.49981 | 11.05929 | 1018 ft | 13 kts | 345° |
| 2026-04-11 09:48 | 49.50047 | 11.05984 | 1017 ft | 12 kts | 83° |
| 2026-04-11 09:49 | 49.50044 | 11.06029 | 1018 ft | 0 kts | 97° |
| 2026-04-11 09:51 | 49.50044 | 11.06037 | 1018 ft | 4 kts | 97° |
| 2026-04-11 09:51 | 49.50034 | 11.06143 | 1019 ft | 24 kts | 98° |
| 2026-04-11 09:51 | 49.49969 | 11.06776 | 1018 ft | 94 kts | 99° |
| 2026-04-11 09:51 | 49.49836 | 11.08077 | 1041 ft | 149 kts | 102° |
| 2026-04-11 09:52 | 49.49640 | 11.09760 | 1496 ft | 168 kts | 101° |
| 2026-04-11 09:52 | 49.49447 | 11.11562 | 2330 ft | 172 kts | 101° |
| 2026-04-11 09:52 | 49.49259 | 11.13359 | 3230 ft | 173 kts | 103° |
| 2026-04-11 09:52 | 49.49016 | 11.15274 | 3658 ft | 194 kts | 105° |
| 2026-04-11 09:53 | 49.48673 | 11.17404 | 3950 ft | 215 kts | 104° |
| 2026-04-11 09:53 | 49.48346 | 11.19683 | 4419 ft | 229 kts | 104° |
| 2026-04-11 09:53 | 49.47765 | 11.22183 | 4636 ft | 258 kts | 123° |
| 2026-04-11 09:53 | 49.46449 | 11.24053 | 5366 ft | 263 kts | 150° |
| 2026-04-11 09:54 | 49.44713 | 11.24894 | 6030 ft | 272 kts | 179° |
| 2026-04-11 09:54 | 49.42824 | 11.24720 | 6825 ft | 274 kts | 186° |
| 2026-04-11 09:54 | 49.40914 | 11.24457 | 7543 ft | 278 kts | 187° |
| 2026-04-11 09:54 | 49.38964 | 11.24203 | 8262 ft | 283 kts | 187° |
| 2026-04-11 09:55 | 49.36987 | 11.23960 | 8984 ft | 288 kts | 188° |
| 2026-04-11 09:55 | 49.34974 | 11.23721 | 9717 ft | 292 kts | 188° |
| 2026-04-11 09:55 | 49.32968 | 11.23225 | 10351 ft | 292 kts | 206° |
| 2026-04-11 09:55 | 49.31336 | 11.21503 | 11000 ft | 286 kts | 232° |
| 2026-04-11 09:56 | 49.30301 | 11.18834 | 11203 ft | 301 kts | 255° |
| 2026-04-11 09:56 | 49.29728 | 11.15643 | 11454 ft | 319 kts | 258° |
| 2026-04-11 09:56 | 49.29193 | 11.12295 | 11997 ft | 327 kts | 259° |
| 2026-04-11 09:56 | 49.28654 | 11.08886 | 12720 ft | 331 kts | 259° |
| 2026-04-11 09:57 | 49.28104 | 11.05445 | 13474 ft | 334 kts | 259° |
| 2026-04-11 09:57 | 49.27543 | 11.01983 | 14197 ft | 337 kts | 259° |
| 2026-04-11 09:57 | 49.26968 | 10.98476 | 14869 ft | 341 kts | 259° |
| 2026-04-11 09:57 | 49.26384 | 10.94944 | 15582 ft | 344 kts | 259° |
| 2026-04-11 09:58 | 49.25791 | 10.91379 | 16283 ft | 347 kts | 259° |
| 2026-04-11 09:58 | 49.25191 | 10.87777 | 16983 ft | 351 kts | 259° |
| 2026-04-11 09:58 | 49.24584 | 10.84145 | 17675 ft | 355 kts | 259° |
| 2026-04-11 09:58 | 49.23969 | 10.80473 | 18346 ft | 358 kts | 259° |
| 2026-04-11 09:59 | 49.23347 | 10.76773 | 18987 ft | 360 kts | 259° |
| 2026-04-11 09:59 | 49.22721 | 10.73057 | 19581 ft | 363 kts | 259° |
| 2026-04-11 09:59 | 49.22086 | 10.69297 | 20145 ft | 367 kts | 259° |
| 2026-04-11 09:59 | 49.21447 | 10.65518 | 20744 ft | 369 kts | 258° |
| 2026-04-11 10:00 | 49.20800 | 10.61702 | 21303 ft | 372 kts | 259° |
| 2026-04-11 10:00 | 49.20147 | 10.57863 | 21832 ft | 376 kts | 259° |
| 2026-04-11 10:00 | 49.19484 | 10.53966 | 22366 ft | 380 kts | 259° |
| 2026-04-11 10:00 | 49.18815 | 10.50044 | 22903 ft | 383 kts | 259° |
| 2026-04-11 10:01 | 49.18138 | 10.46082 | 23401 ft | 387 kts | 259° |
| 2026-04-11 10:01 | 49.17453 | 10.42086 | 23852 ft | 390 kts | 259° |
| 2026-04-11 10:01 | 49.16762 | 10.38061 | 24334 ft | 392 kts | 259° |
| 2026-04-11 10:01 | 49.16070 | 10.34040 | 24836 ft | 392 kts | 258° |
| 2026-04-11 10:02 | 49.15372 | 10.29998 | 25291 ft | 394 kts | 258° |
| 2026-04-11 10:02 | 49.14548 | 10.25998 | 25723 ft | 399 kts | 251° |
| 2026-04-11 10:02 | 49.13312 | 10.22178 | 26160 ft | 404 kts | 244° |
| 2026-04-11 10:02 | 49.11686 | 10.18632 | 26595 ft | 410 kts | 235° |
| 2026-04-11 10:03 | 49.09881 | 10.15238 | 27038 ft | 412 kts | 234° |
| 2026-04-11 10:03 | 49.08061 | 10.11857 | 27430 ft | 414 kts | 234° |
| 2026-04-11 10:03 | 49.06849 | 10.09603 | 27682 ft | 416 kts | 234° |
| 2026-04-11 10:03 | 49.05016 | 10.06183 | 28055 ft | 418 kts | 234° |
| 2026-04-11 10:04 | 49.03178 | 10.02736 | 28452 ft | 419 kts | 234° |
| 2026-04-11 10:04 | 49.01338 | 9.99276 | 28844 ft | 421 kts | 234° |
| 2026-04-11 10:04 | 48.99495 | 9.95806 | 29221 ft | 423 kts | 234° |
| 2026-04-11 10:04 | 48.97640 | 9.92314 | 29581 ft | 425 kts | 234° |
| 2026-04-11 10:05 | 48.95779 | 9.88815 | 29937 ft | 427 kts | 234° |
| 2026-04-11 10:05 | 48.93905 | 9.85296 | 30248 ft | 428 kts | 234° |
| 2026-04-11 10:05 | 48.92030 | 9.81780 | 30590 ft | 428 kts | 234° |
| 2026-04-11 10:05 | 48.90158 | 9.78276 | 31050 ft | 425 kts | 234° |
| 2026-04-11 10:06 | 48.88301 | 9.74808 | 31525 ft | 421 kts | 234° |
| 2026-04-11 10:06 | 48.86458 | 9.71371 | 31961 ft | 419 kts | 234° |
| 2026-04-11 10:06 | 48.84625 | 9.67954 | 32334 ft | 417 kts | 234° |
| 2026-04-11 10:06 | 48.82790 | 9.64539 | 32682 ft | 417 kts | 234° |
| 2026-04-11 10:07 | 48.80960 | 9.61137 | 33098 ft | 414 kts | 234° |
| 2026-04-11 10:07 | 48.79144 | 9.57763 | 33520 ft | 412 kts | 234° |
| 2026-04-11 10:07 | 48.77333 | 9.54399 | 33881 ft | 411 kts | 234° |
| 2026-04-11 10:07 | 48.75525 | 9.51045 | 34180 ft | 411 kts | 234° |
| 2026-04-11 10:08 | 48.73720 | 9.47704 | 34476 ft | 410 kts | 234° |
| 2026-04-11 10:08 | 48.71914 | 9.44373 | 34766 ft | 409 kts | 234° |
| 2026-04-11 10:08 | 48.70101 | 9.41052 | 35030 ft | 409 kts | 234° |
| 2026-04-11 10:08 | 48.68288 | 9.37737 | 35248 ft | 409 kts | 234° |
| 2026-04-11 10:09 | 48.66473 | 9.34423 | 35535 ft | 409 kts | 234° |
| 2026-04-11 10:09 | 48.64657 | 9.31121 | 35828 ft | 408 kts | 232° |
| 2026-04-11 10:09 | 48.62592 | 9.28150 | 36068 ft | 414 kts | 221° |
| 2026-04-11 10:09 | 48.60176 | 9.25754 | 36324 ft | 418 kts | 214° |
| 2026-04-11 10:10 | 48.57525 | 9.23895 | 36569 ft | 424 kts | 204° |
| 2026-04-11 10:10 | 48.54696 | 9.22585 | 36825 ft | 426 kts | 201° |
| 2026-04-11 10:10 | 48.51848 | 9.21363 | 37059 ft | 426 kts | 201° |
| 2026-04-11 10:10 | 48.48996 | 9.20160 | 37277 ft | 425 kts | 201° |
| 2026-04-11 10:11 | 48.46151 | 9.18954 | 37519 ft | 425 kts | 201° |
| 2026-04-11 10:11 | 48.43349 | 9.17753 | 37764 ft | 424 kts | 201° |
| 2026-04-11 10:11 | 48.40514 | 9.16525 | 37960 ft | 424 kts | 202° |
| 2026-04-11 10:12 | 48.34780 | 9.14018 | 37960 ft | 427 kts | 202° |
| 2026-04-11 10:12 | 48.29146 | 9.11555 | 37961 ft | 422 kts | 202° |
| 2026-04-11 10:13 | 48.23488 | 9.09085 | 37957 ft | 419 kts | 201° |
| 2026-04-11 10:13 | 48.17903 | 9.06653 | 37974 ft | 417 kts | 201° |
| 2026-04-11 10:14 | 48.12368 | 9.04247 | 37973 ft | 416 kts | 201° |
| 2026-04-11 10:14 | 48.06803 | 9.01833 | 37959 ft | 417 kts | 201° |
| 2026-04-11 10:15 | 48.01220 | 8.99417 | 37976 ft | 418 kts | 201° |
| 2026-04-11 10:15 | 47.95612 | 8.96996 | 37985 ft | 421 kts | 201° |
| 2026-04-11 10:16 | 47.89976 | 8.94569 | 37988 ft | 423 kts | 201° |
| 2026-04-11 10:16 | 47.84304 | 8.92131 | 37987 ft | 425 kts | 200° |
| 2026-04-11 10:17 | 47.78612 | 8.89691 | 37986 ft | 427 kts | 200° |
| 2026-04-11 10:17 | 47.72960 | 8.87029 | 37982 ft | 426 kts | 203° |
| 2026-04-11 10:18 | 47.67351 | 8.84193 | 37987 ft | 426 kts | 202° |
| 2026-04-11 10:18 | 47.61748 | 8.81375 | 37987 ft | 424 kts | 202° |
| 2026-04-11 10:19 | 47.56151 | 8.78617 | 38007 ft | 422 kts | 202° |
| 2026-04-11 10:19 | 47.50586 | 8.75888 | 38012 ft | 420 kts | 202° |
| 2026-04-11 10:20 | 47.45044 | 8.73175 | 38010 ft | 418 kts | 201° |
| 2026-04-11 10:20 | 47.39531 | 8.70480 | 38016 ft | 417 kts | 201° |
| 2026-04-11 10:21 | 47.34035 | 8.67799 | 38019 ft | 415 kts | 201° |
| 2026-04-11 10:21 | 47.28591 | 8.65149 | 38020 ft | 414 kts | 201° |
| 2026-04-11 10:22 | 47.23113 | 8.62488 | 38004 ft | 414 kts | 201° |
| 2026-04-11 10:22 | 47.17642 | 8.59837 | 38003 ft | 414 kts | 201° |
| 2026-04-11 10:23 | 47.12158 | 8.57183 | 38002 ft | 415 kts | 201° |
| 2026-04-11 10:23 | 47.06667 | 8.54555 | 37978 ft | 417 kts | 198° |
| 2026-04-11 10:24 | 47.00880 | 8.53541 | 37994 ft | 423 kts | 180° |
| 2026-04-11 10:24 | 46.94986 | 8.54385 | 38003 ft | 427 kts | 177° |
| 2026-04-11 10:25 | 46.89077 | 8.55311 | 37962 ft | 427 kts | 178° |
| 2026-04-11 10:25 | 46.83171 | 8.56183 | 38025 ft | 428 kts | 178° |
| 2026-04-11 10:26 | 46.77252 | 8.57036 | 38011 ft | 428 kts | 178° |
| 2026-04-11 10:26 | 46.71299 | 8.57887 | 38005 ft | 431 kts | 178° |
| 2026-04-11 10:27 | 46.65321 | 8.58718 | 38040 ft | 432 kts | 178° |
| 2026-04-11 10:27 | 46.59341 | 8.59582 | 38030 ft | 432 kts | 178° |
| 2026-04-11 10:28 | 46.53370 | 8.60449 | 38039 ft | 430 kts | 178° |
| 2026-04-11 10:28 | 46.47418 | 8.61290 | 38039 ft | 429 kts | 178° |
| 2026-04-11 10:29 | 46.41489 | 8.62128 | 38078 ft | 427 kts | 178° |
| 2026-04-11 10:29 | 46.35578 | 8.62962 | 38060 ft | 426 kts | 178° |
| 2026-04-11 10:30 | 46.29687 | 8.63793 | 38060 ft | 425 kts | 178° |
| 2026-04-11 10:30 | 46.23799 | 8.64620 | 38042 ft | 425 kts | 178° |
| 2026-04-11 10:31 | 46.17919 | 8.65447 | 38060 ft | 424 kts | 178° |
| 2026-04-11 10:31 | 46.12050 | 8.66093 | 38056 ft | 421 kts | 185° |
| 2026-04-11 10:32 | 46.06358 | 8.64628 | 38067 ft | 415 kts | 201° |
| 2026-04-11 10:32 | 46.00950 | 8.61892 | 38071 ft | 415 kts | 201° |
| 2026-04-11 10:33 | 45.95496 | 8.59112 | 38068 ft | 417 kts | 201° |
| 2026-04-11 10:33 | 45.90009 | 8.56357 | 38056 ft | 418 kts | 201° |
| 2026-04-11 10:34 | 45.84502 | 8.53620 | 38075 ft | 419 kts | 200° |
| 2026-04-11 10:34 | 45.78979 | 8.50889 | 38053 ft | 420 kts | 200° |
| 2026-04-11 10:35 | 45.73445 | 8.48160 | 38074 ft | 421 kts | 200° |
| 2026-04-11 10:35 | 45.67908 | 8.45434 | 38063 ft | 421 kts | 200° |
| 2026-04-11 10:36 | 45.62373 | 8.42714 | 38058 ft | 420 kts | 200° |
| 2026-04-11 10:36 | 45.56849 | 8.40006 | 38067 ft | 419 kts | 200° |
| 2026-04-11 10:37 | 45.51330 | 8.37305 | 38065 ft | 419 kts | 200° |
| 2026-04-11 10:37 | 45.45822 | 8.34615 | 38066 ft | 418 kts | 200° |
| 2026-04-11 10:38 | 45.40325 | 8.31936 | 38070 ft | 417 kts | 200° |
| 2026-04-11 10:38 | 45.32098 | 8.27937 | 38070 ft | 416 kts | 200° |
| 2026-04-11 10:39 | 45.26654 | 8.25298 | 38062 ft | 416 kts | 200° |
| 2026-04-11 10:39 | 45.21183 | 8.22651 | 38071 ft | 415 kts | 199° |
| 2026-04-11 10:40 | 45.15714 | 8.20010 | 38066 ft | 415 kts | 199° |
| 2026-04-11 10:40 | 45.10244 | 8.17374 | 38067 ft | 415 kts | 199° |
| 2026-04-11 10:41 | 45.04773 | 8.14743 | 38067 ft | 415 kts | 199° |
| 2026-04-11 10:41 | 44.99304 | 8.12118 | 38063 ft | 415 kts | 199° |
| 2026-04-11 10:42 | 44.93825 | 8.09494 | 38065 ft | 416 kts | 199° |
| 2026-04-11 10:42 | 44.88344 | 8.06873 | 38056 ft | 416 kts | 199° |
| 2026-04-11 10:43 | 44.80111 | 8.02948 | 38061 ft | 416 kts | 199° |
| 2026-04-11 10:44 | 44.74625 | 8.00339 | 38061 ft | 417 kts | 199° |
| 2026-04-11 10:44 | 44.69127 | 7.97728 | 38072 ft | 417 kts | 199° |
| 2026-04-11 10:45 | 44.63635 | 7.95127 | 38072 ft | 416 kts | 199° |
| 2026-04-11 10:45 | 44.58159 | 7.92538 | 38061 ft | 415 kts | 199° |
| 2026-04-11 10:46 | 44.52702 | 7.89963 | 38064 ft | 413 kts | 199° |
| 2026-04-11 10:46 | 44.47270 | 7.87405 | 38060 ft | 411 kts | 199° |
| 2026-04-11 10:47 | 44.41857 | 7.84860 | 38068 ft | 410 kts | 199° |
| 2026-04-11 10:47 | 44.36498 | 7.82345 | 38065 ft | 408 kts | 199° |
| 2026-04-11 10:48 | 44.31118 | 7.79826 | 38058 ft | 407 kts | 199° |
| 2026-04-11 10:48 | 44.26014 | 7.76469 | 38057 ft | 406 kts | 213° |
| 2026-04-11 10:49 | 44.21692 | 7.71383 | 38054 ft | 408 kts | 221° |
| 2026-04-11 10:49 | 44.17477 | 7.66065 | 38051 ft | 409 kts | 221° |
| 2026-04-11 10:50 | 44.13315 | 7.60637 | 38039 ft | 412 kts | 227° |
| 2026-04-11 10:50 | 44.09542 | 7.54596 | 38038 ft | 414 kts | 228° |
| 2026-04-11 10:51 | 44.05801 | 7.48496 | 38034 ft | 415 kts | 228° |
| 2026-04-11 10:51 | 44.02022 | 7.42418 | 38043 ft | 416 kts | 228° |
| 2026-04-11 10:52 | 43.98854 | 7.37368 | 38031 ft | 417 kts | 227° |
| 2026-04-11 10:52 | 43.95036 | 7.31306 | 38029 ft | 417 kts | 227° |
| 2026-04-11 10:53 | 43.91226 | 7.25269 | 38043 ft | 415 kts | 227° |
| 2026-04-11 10:53 | 43.87424 | 7.19257 | 38045 ft | 414 kts | 227° |
| 2026-04-11 10:54 | 43.83630 | 7.13269 | 38035 ft | 413 kts | 227° |
| 2026-04-11 10:54 | 43.79841 | 7.07301 | 38042 ft | 412 kts | 227° |
| 2026-04-11 10:55 | 43.76063 | 7.01361 | 38044 ft | 411 kts | 227° |
| 2026-04-11 10:55 | 43.72465 | 6.95264 | 38067 ft | 409 kts | 236° |
| 2026-04-11 10:56 | 43.70018 | 6.88153 | 38052 ft | 411 kts | 246° |
| 2026-04-11 10:56 | 43.67911 | 6.80856 | 38045 ft | 411 kts | 245° |
| 2026-04-11 10:57 | 43.65758 | 6.73480 | 38031 ft | 411 kts | 245° |
| 2026-04-11 10:57 | 43.63598 | 6.66165 | 38030 ft | 411 kts | 245° |
| 2026-04-11 10:58 | 43.61442 | 6.58907 | 38031 ft | 411 kts | 245° |
| 2026-04-11 10:58 | 43.59266 | 6.51605 | 38035 ft | 412 kts | 245° |
| 2026-04-11 10:59 | 43.57082 | 6.44298 | 38054 ft | 412 kts | 245° |
| 2026-04-11 10:59 | 43.54891 | 6.36984 | 38047 ft | 413 kts | 245° |
| 2026-04-11 11:00 | 43.52692 | 6.29665 | 38039 ft | 413 kts | 245° |
| 2026-04-11 11:00 | 43.50487 | 6.22347 | 38037 ft | 413 kts | 245° |
| 2026-04-11 11:01 | 43.48279 | 6.15034 | 38034 ft | 413 kts | 245° |
| 2026-04-11 11:01 | 43.46065 | 6.07730 | 38034 ft | 413 kts | 245° |
| 2026-04-11 11:02 | 43.43849 | 6.00431 | 38028 ft | 413 kts | 245° |
| 2026-04-11 11:02 | 43.41631 | 5.93143 | 38004 ft | 413 kts | 245° |
| 2026-04-11 11:03 | 43.39413 | 5.85871 | 37994 ft | 413 kts | 245° |
| 2026-04-11 11:03 | 43.37190 | 5.78599 | 37996 ft | 412 kts | 245° |
| 2026-04-11 11:04 | 43.34967 | 5.71350 | 38010 ft | 411 kts | 245° |
| 2026-04-11 11:04 | 43.32740 | 5.64110 | 37995 ft | 411 kts | 244° |
| 2026-04-11 11:05 | 43.30509 | 5.56874 | 37971 ft | 412 kts | 244° |
| 2026-04-11 11:05 | 43.28276 | 5.49650 | 37993 ft | 411 kts | 244° |
| 2026-04-11 11:06 | 43.26040 | 5.42437 | 37987 ft | 410 kts | 244° |
| 2026-04-11 11:06 | 43.23804 | 5.35243 | 37975 ft | 410 kts | 244° |
| 2026-04-11 11:07 | 43.21558 | 5.28062 | 37979 ft | 410 kts | 244° |
| 2026-04-11 11:07 | 43.19302 | 5.20893 | 37976 ft | 409 kts | 244° |
| 2026-04-11 11:08 | 43.17059 | 5.13782 | 37978 ft | 409 kts | 244° |
| 2026-04-11 11:08 | 43.14797 | 5.06621 | 37808 ft | 412 kts | 244° |
| 2026-04-11 11:08 | 43.13653 | 5.03011 | 37444 ft | 412 kts | 244° |
| 2026-04-11 11:09 | 43.12506 | 4.99390 | 36997 ft | 407 kts | 244° |
| 2026-04-11 11:09 | 43.11387 | 4.95859 | 36655 ft | 402 kts | 244° |
| 2026-04-11 11:09 | 43.10293 | 4.92415 | 36279 ft | 398 kts | 244° |
| 2026-04-11 11:09 | 43.09196 | 4.88964 | 35915 ft | 394 kts | 244° |
| 2026-04-11 11:10 | 43.08107 | 4.85548 | 35550 ft | 390 kts | 244° |
| 2026-04-11 11:10 | 43.07008 | 4.82180 | 35179 ft | 385 kts | 240° |
| 2026-04-11 11:10 | 43.05579 | 4.79128 | 34810 ft | 379 kts | 230° |
| 2026-04-11 11:10 | 43.03853 | 4.76447 | 34524 ft | 373 kts | 224° |
| 2026-04-11 11:11 | 43.01901 | 4.74171 | 34275 ft | 366 kts | 215° |
| 2026-04-11 11:11 | 42.99819 | 4.72216 | 33981 ft | 361 kts | 214° |
| 2026-04-11 11:11 | 42.97742 | 4.70306 | 33584 ft | 359 kts | 214° |
| 2026-04-11 11:11 | 42.95683 | 4.68422 | 33235 ft | 355 kts | 214° |
| 2026-04-11 11:12 | 42.93640 | 4.66549 | 32881 ft | 351 kts | 215° |
| 2026-04-11 11:12 | 42.91625 | 4.64695 | 32518 ft | 348 kts | 215° |
| 2026-04-11 11:12 | 42.89630 | 4.62856 | 32200 ft | 345 kts | 215° |
| 2026-04-11 11:12 | 42.87648 | 4.61025 | 31842 ft | 342 kts | 215° |
| 2026-04-11 11:13 | 42.85687 | 4.59213 | 31499 ft | 340 kts | 215° |
| 2026-04-11 11:13 | 42.83737 | 4.57410 | 31169 ft | 337 kts | 215° |
| 2026-04-11 11:13 | 42.81802 | 4.55622 | 30826 ft | 336 kts | 216° |
| 2026-04-11 11:13 | 42.79872 | 4.53840 | 30495 ft | 334 kts | 216° |
| 2026-04-11 11:14 | 42.77952 | 4.52067 | 30161 ft | 333 kts | 216° |
| 2026-04-11 11:14 | 42.76039 | 4.50303 | 29801 ft | 331 kts | 216° |
| 2026-04-11 11:14 | 42.74140 | 4.48552 | 29427 ft | 329 kts | 216° |
| 2026-04-11 11:14 | 42.72252 | 4.46814 | 29086 ft | 326 kts | 216° |
| 2026-04-11 11:15 | 42.70378 | 4.45090 | 28732 ft | 324 kts | 216° |
| 2026-04-11 11:15 | 42.68515 | 4.43376 | 28400 ft | 323 kts | 216° |
| 2026-04-11 11:15 | 42.66644 | 4.41656 | 28067 ft | 329 kts | 216° |
| 2026-04-11 11:15 | 42.64715 | 4.39881 | 27730 ft | 340 kts | 216° |
| 2026-04-11 11:16 | 42.62744 | 4.38071 | 27354 ft | 342 kts | 216° |
| 2026-04-11 11:16 | 42.60776 | 4.36268 | 26986 ft | 340 kts | 216° |
| 2026-04-11 11:16 | 42.58824 | 4.34481 | 26629 ft | 337 kts | 216° |
| 2026-04-11 11:16 | 42.56886 | 4.32708 | 26281 ft | 335 kts | 216° |
| 2026-04-11 11:17 | 42.54964 | 4.30951 | 25934 ft | 332 kts | 216° |
| 2026-04-11 11:17 | 42.53051 | 4.29202 | 25580 ft | 330 kts | 216° |
| 2026-04-11 11:17 | 42.51154 | 4.27470 | 25248 ft | 328 kts | 216° |
| 2026-04-11 11:17 | 42.49265 | 4.25746 | 24910 ft | 326 kts | 216° |
| 2026-04-11 11:18 | 42.47390 | 4.24036 | 24575 ft | 324 kts | 216° |
| 2026-04-11 11:18 | 42.45522 | 4.22332 | 24241 ft | 323 kts | 216° |
| 2026-04-11 11:18 | 42.43661 | 4.20637 | 23909 ft | 322 kts | 216° |
| 2026-04-11 11:18 | 42.41806 | 4.18949 | 23577 ft | 321 kts | 216° |
| 2026-04-11 11:19 | 42.39951 | 4.17261 | 23157 ft | 321 kts | 216° |
| 2026-04-11 11:19 | 42.38104 | 4.15582 | 22803 ft | 319 kts | 216° |
| 2026-04-11 11:19 | 42.36289 | 4.13935 | 22459 ft | 317 kts | 216° |
| 2026-04-11 11:19 | 42.34438 | 4.12255 | 22116 ft | 315 kts | 216° |
| 2026-04-11 11:20 | 42.32624 | 4.10609 | 21769 ft | 313 kts | 216° |
| 2026-04-11 11:20 | 42.30823 | 4.08977 | 21450 ft | 311 kts | 216° |
| 2026-04-11 11:20 | 42.29054 | 4.07374 | 21136 ft | 309 kts | 216° |
| 2026-04-11 11:20 | 42.27273 | 4.05761 | 20813 ft | 307 kts | 216° |
| 2026-04-11 11:21 | 42.25506 | 4.04163 | 20510 ft | 306 kts | 216° |
| 2026-04-11 11:21 | 42.23741 | 4.02569 | 20192 ft | 304 kts | 216° |
| 2026-04-11 11:21 | 42.22030 | 4.00911 | 19873 ft | 301 kts | 224° |
| 2026-04-11 11:21 | 42.20650 | 3.98806 | 19506 ft | 300 kts | 236° |
| 2026-04-11 11:22 | 42.19639 | 3.96329 | 19099 ft | 302 kts | 246° |
| 2026-04-11 11:22 | 42.18788 | 3.93736 | 18743 ft | 302 kts | 246° |
| 2026-04-11 11:22 | 42.17956 | 3.91146 | 18436 ft | 301 kts | 246° |
| 2026-04-11 11:22 | 42.17125 | 3.88561 | 18103 ft | 300 kts | 246° |
| 2026-04-11 11:23 | 42.16291 | 3.85986 | 17758 ft | 299 kts | 246° |
| 2026-04-11 11:23 | 42.15457 | 3.83425 | 17429 ft | 297 kts | 246° |
| 2026-04-11 11:23 | 42.14626 | 3.80885 | 17125 ft | 295 kts | 246° |
| 2026-04-11 11:23 | 42.13800 | 3.78368 | 16819 ft | 293 kts | 246° |
| 2026-04-11 11:24 | 42.12976 | 3.75860 | 16503 ft | 292 kts | 246° |
| 2026-04-11 11:24 | 42.12372 | 3.74028 | 16306 ft | 0 kts | 246° |
| 2026-04-11 11:25 | 42.12337 | 3.73920 | 16237 ft | 0 kts | 246° |
| 2026-04-11 11:25 | 42.12254 | 3.73669 | 16227 ft | 288 kts | 246° |
| 2026-04-11 11:25 | 42.11526 | 3.71461 | 15998 ft | 285 kts | 246° |
| 2026-04-11 11:26 | 42.10721 | 3.69019 | 15675 ft | 284 kts | 246° |
| 2026-04-11 11:26 | 42.09918 | 3.66591 | 15403 ft | 283 kts | 246° |
| 2026-04-11 11:26 | 42.09119 | 3.64181 | 15111 ft | 282 kts | 246° |
| 2026-04-11 11:26 | 42.08323 | 3.61781 | 14822 ft | 281 kts | 246° |
| 2026-04-11 11:27 | 42.07534 | 3.59382 | 14526 ft | 280 kts | 246° |
| 2026-04-11 11:27 | 42.06747 | 3.56987 | 14232 ft | 279 kts | 246° |
| 2026-04-11 11:27 | 42.05962 | 3.54600 | 13942 ft | 279 kts | 246° |
| 2026-04-11 11:27 | 42.05178 | 3.52218 | 13629 ft | 278 kts | 246° |
| 2026-04-11 11:28 | 42.04395 | 3.49844 | 13323 ft | 277 kts | 246° |
| 2026-04-11 11:28 | 42.03616 | 3.47482 | 13026 ft | 276 kts | 246° |
| 2026-04-11 11:28 | 42.02839 | 3.45129 | 12724 ft | 274 kts | 246° |
| 2026-04-11 11:28 | 42.02067 | 3.42793 | 12434 ft | 273 kts | 246° |
| 2026-04-11 11:29 | 42.00532 | 3.38154 | 11868 ft | 270 kts | 246° |
| 2026-04-11 11:29 | 41.99780 | 3.35885 | 11590 ft | 269 kts | 246° |
| 2026-04-11 11:29 | 41.99021 | 3.33595 | 11306 ft | 268 kts | 246° |
| 2026-04-11 11:30 | 41.98265 | 3.31316 | 11025 ft | 267 kts | 246° |
| 2026-04-11 11:30 | 41.97510 | 3.29042 | 10737 ft | 266 kts | 246° |
| 2026-04-11 11:30 | 41.96757 | 3.26780 | 10453 ft | 265 kts | 246° |
| 2026-04-11 11:30 | 41.96006 | 3.24527 | 10179 ft | 265 kts | 246° |
| 2026-04-11 11:31 | 41.95404 | 3.22217 | 10031 ft | 259 kts | 263° |
| 2026-04-11 11:31 | 41.95558 | 3.19835 | 9797 ft | 260 kts | 285° |
| 2026-04-11 11:31 | 41.96362 | 3.17621 | 9454 ft | 268 kts | 301° |
| 2026-04-11 11:31 | 41.97398 | 3.15522 | 9153 ft | 270 kts | 302° |
| 2026-04-11 11:32 | 41.98461 | 3.13415 | 8849 ft | 271 kts | 302° |
| 2026-04-11 11:32 | 41.99510 | 3.11330 | 8513 ft | 273 kts | 302° |
| 2026-04-11 11:32 | 42.00572 | 3.09211 | 8187 ft | 273 kts | 302° |
| 2026-04-11 11:32 | 42.01647 | 3.07054 | 7851 ft | 275 kts | 302° |
| 2026-04-11 11:33 | 42.02708 | 3.04917 | 7506 ft | 274 kts | 302° |
| 2026-04-11 11:33 | 42.03747 | 3.02825 | 7190 ft | 271 kts | 302° |
| 2026-04-11 11:33 | 42.04800 | 3.00690 | 6843 ft | 269 kts | 301° |
| 2026-04-11 11:33 | 42.05818 | 2.98626 | 6532 ft | 267 kts | 301° |
| 2026-04-11 11:34 | 42.06854 | 2.96524 | 6202 ft | 265 kts | 301° |
| 2026-04-11 11:34 | 42.07870 | 2.94460 | 5864 ft | 264 kts | 302° |
| 2026-04-11 11:34 | 42.08883 | 2.92399 | 5522 ft | 262 kts | 302° |
| 2026-04-11 11:34 | 42.09866 | 2.90400 | 5192 ft | 256 kts | 301° |
| 2026-04-11 11:35 | 42.10813 | 2.88420 | 4876 ft | 247 kts | 294° |
| 2026-04-11 11:35 | 42.11086 | 2.86239 | 4670 ft | 232 kts | 257° |
| 2026-04-11 11:35 | 42.10382 | 2.84377 | 4313 ft | 225 kts | 225° |
| 2026-04-11 11:35 | 42.09120 | 2.83239 | 4038 ft | 219 kts | 204° |
| 2026-04-11 11:36 | 42.07679 | 2.82666 | 3766 ft | 213 kts | 197° |
| 2026-04-11 11:36 | 42.06268 | 2.82158 | 3467 ft | 207 kts | 196° |
| 2026-04-11 11:36 | 42.04902 | 2.81653 | 3232 ft | 200 kts | 197° |
| 2026-04-11 11:36 | 42.03587 | 2.81160 | 2932 ft | 193 kts | 197° |
| 2026-04-11 11:37 | 42.02318 | 2.80687 | 2686 ft | 186 kts | 197° |
| 2026-04-11 11:37 | 42.01120 | 2.80233 | 2519 ft | 172 kts | 196° |
| 2026-04-11 11:37 | 41.99973 | 2.79802 | 2518 ft | 171 kts | 195° |
| 2026-04-11 11:37 | 41.98837 | 2.79367 | 2551 ft | 168 kts | 197° |
| 2026-04-11 11:38 | 41.97746 | 2.78949 | 2407 ft | 159 kts | 194° |
| 2026-04-11 11:38 | 41.96669 | 2.78568 | 1956 ft | 164 kts | 194° |
| 2026-04-11 11:38 | 41.95546 | 2.78135 | 1422 ft | 169 kts | 193° |
| 2026-04-11 11:38 | 41.94449 | 2.77750 | 1177 ft | 153 kts | 195° |
| 2026-04-11 11:39 | 41.93800 | 2.77486 | 1039 ft | 143 kts | 199° |
| 2026-04-11 11:39 | 41.92875 | 2.77039 | 758 ft | 133 kts | 198° |
| 2026-04-11 11:39 | 41.91988 | 2.76758 | 628 ft | 134 kts | 191° |
| 2026-04-11 11:39 | 41.91080 | 2.76430 | 489 ft | 130 kts | 195° |
| 2026-04-11 11:40 | 41.90311 | 2.76144 | 448 ft | 89 kts | 195° |
| 2026-04-11 11:40 | 41.90089 | 2.76131 | 426 ft | 21 kts | 126° |
| 2026-04-11 11:40 | 41.90053 | 2.76244 | 426 ft | 13 kts | 141° |
| 2026-04-11 11:40 | 41.89967 | 2.76231 | 427 ft | 12 kts | 203° |
| 2026-04-11 11:41 | 41.89924 | 2.76231 | 427 ft | 7 kts | 148° |
| 2026-04-11 11:41 | 41.89902 | 2.76292 | 418 ft | 9 kts | 105° |
| 2026-04-11 11:41 | 41.89880 | 2.76375 | 420 ft | 10 kts | 127° |
| 2026-04-11 11:41 | 41.89858 | 2.76456 | 415 ft | 7 kts | 106° |
| 2026-04-11 11:42 | 41.89853 | 2.76481 | 416 ft | 0 kts | 105° |